createdAt,value
2023-04-25T00:00:01.755Z,51813.00
2023-04-25T00:02:30.499Z,51780.91
2023-04-25T00:05:00.011Z,51808.97
2023-04-25T00:07:28.799Z,51837.06
2023-04-25T00:10:06.452Z,51790.91
2023-04-25T00:12:35.244Z,51796.94
2023-04-25T00:15:03.913Z,51780.91
2023-04-25T00:17:32.749Z,51813.00
2023-04-25T00:20:01.303Z,51792.94
2023-04-25T00:22:29.768Z,51788.91
2023-04-25T00:25:01.031Z,51808.97
2023-04-25T00:27:29.495Z,51806.97
2023-04-25T00:30:00.042Z,51817.00
2023-04-25T00:32:35.430Z,51780.91
2023-04-25T00:35:04.071Z,51819.00
2023-04-25T00:37:32.513Z,51813.00
2023-04-25T00:40:02.284Z,51804.97
2023-04-25T00:42:31.197Z,51786.91
2023-04-25T00:45:00.759Z,51847.09
2023-04-25T00:47:30.807Z,51794.94
2023-04-25T00:49:59.213Z,51758.81
2023-04-25T00:52:27.742Z,51817.00
2023-04-25T00:54:57.095Z,51780.91
2023-04-25T00:57:27.511Z,51851.09
2023-04-25T00:59:56.479Z,51837.06
2023-04-25T01:02:26.602Z,51817.00
2023-04-25T01:04:56.956Z,51823.03
2023-04-25T01:07:26.071Z,51833.06
2023-04-25T01:09:54.487Z,51819.00
2023-04-25T01:12:23.405Z,51825.03
2023-04-25T01:14:53.223Z,51837.06
2023-04-25T01:17:22.400Z,51762.84
2023-04-25T01:19:52.378Z,51813.00
2023-04-25T01:22:22.707Z,51804.97
2023-04-25T01:24:51.293Z,51786.91
2023-04-25T01:27:21.710Z,51806.97
2023-04-25T01:29:51.164Z,51837.06
2023-04-25T01:32:20.432Z,51788.91
2023-04-25T01:34:48.847Z,51764.84
2023-04-25T01:37:18.880Z,51786.91
2023-04-25T01:39:49.650Z,51810.97
2023-04-25T01:42:18.278Z,51800.94
2023-04-25T01:44:46.896Z,51796.94
2023-04-25T01:47:15.743Z,51845.09
2023-04-25T01:49:44.945Z,51813.00
2023-04-25T01:52:13.283Z,51794.94
2023-04-25T01:54:45.518Z,51802.97
2023-04-25T01:57:16.589Z,51760.84
2023-04-25T01:59:46.549Z,51829.03
2023-04-25T02:02:33.482Z,51788.91
2023-04-25T02:05:02.397Z,51796.94
2023-04-25T02:07:31.778Z,51808.97
2023-04-25T02:10:01.356Z,51796.94
2023-04-25T02:12:34.272Z,51756.81
2023-04-25T02:15:08.827Z,51808.97
2023-04-25T02:17:50.553Z,51835.06
2023-04-25T02:20:19.181Z,51780.91
2023-04-25T02:22:47.713Z,51821.00
2023-04-25T02:25:16.834Z,51784.91
2023-04-25T02:27:46.617Z,51825.03
2023-04-25T02:30:16.103Z,51768.84
2023-04-25T02:32:44.914Z,51798.94
2023-04-25T02:35:13.349Z,51823.03
2023-04-25T02:37:42.457Z,51813.00
2023-04-25T02:40:11.847Z,51792.94
2023-04-25T02:42:40.283Z,51835.06
2023-04-25T02:45:11.334Z,51813.00
2023-04-25T02:47:40.253Z,51841.06
2023-04-25T02:50:09.466Z,51839.06
2023-04-25T02:52:37.952Z,51810.97
2023-04-25T02:55:17.023Z,51817.00
2023-04-25T02:57:46.010Z,51813.00
2023-04-25T03:00:22.321Z,51800.94
2023-04-25T03:02:50.884Z,51845.09
2023-04-25T03:05:20.513Z,51784.91
2023-04-25T03:07:49.168Z,51813.00
2023-04-25T03:10:18.500Z,51808.97
2023-04-25T03:12:46.952Z,51796.94
2023-04-25T03:15:17.585Z,51825.03
2023-04-25T03:17:47.388Z,51798.94
2023-04-25T03:20:27.742Z,51829.03
2023-04-25T03:22:56.794Z,51788.91
2023-04-25T03:25:25.183Z,51843.09
2023-04-25T03:27:53.556Z,51804.97
2023-04-25T03:30:22.020Z,51845.09
2023-04-25T03:32:52.296Z,51833.06
2023-04-25T03:35:21.245Z,51825.03
2023-04-25T03:37:49.990Z,51813.00
2023-04-25T03:40:23.217Z,51845.09
2023-04-25T03:43:12.174Z,51833.06
2023-04-25T03:45:44.483Z,51865.16
2023-04-25T03:48:14.327Z,51853.13
2023-04-25T03:50:42.728Z,51829.03
2023-04-25T03:53:11.131Z,51823.03
2023-04-25T03:55:59.518Z,51841.06
2023-04-25T03:58:28.601Z,51841.06
2023-04-25T04:00:57.226Z,51861.13
2023-04-25T04:03:27.240Z,51911.28
2023-04-25T04:05:56.229Z,51835.06
2023-04-25T04:08:24.884Z,51881.19
2023-04-25T04:10:53.274Z,51863.16
2023-04-25T04:13:21.774Z,51849.09
2023-04-25T04:15:50.717Z,51851.09
2023-04-25T04:18:20.528Z,51837.06
2023-04-25T04:20:50.700Z,51837.06
2023-04-25T04:23:19.389Z,51821.00
2023-04-25T04:25:48.800Z,51841.06
2023-04-25T04:28:40.079Z,51843.09
2023-04-25T04:31:20.534Z,51893.25
2023-04-25T04:33:49.669Z,51825.03
2023-04-25T04:36:22.790Z,51851.09
2023-04-25T04:38:51.340Z,51849.09
2023-04-25T04:41:34.279Z,51794.94
2023-04-25T04:44:30.357Z,51847.09
2023-04-25T04:47:15.343Z,51800.94
2023-04-25T04:50:01.164Z,51819.00
2023-04-25T04:52:55.365Z,51833.06
2023-04-25T04:55:41.996Z,51776.88
2023-04-25T04:58:23.895Z,51813.00
2023-04-25T05:01:05.426Z,51871.16
2023-04-25T05:03:36.450Z,51867.16
2023-04-25T05:06:34.496Z,51806.97
2023-04-25T05:09:37.298Z,51839.06
2023-04-25T05:12:24.678Z,51835.06
2023-04-25T05:15:01.164Z,51845.09
2023-04-25T05:17:47.975Z,51806.97
2023-04-25T05:20:26.935Z,51768.84
2023-04-25T05:23:01.277Z,51817.00
2023-04-25T05:25:49.847Z,51817.00
2023-04-25T05:28:44.807Z,51804.97
2023-04-25T05:31:51.759Z,51792.94
2023-04-25T05:34:20.777Z,51788.91
2023-04-25T05:36:57.253Z,51817.00
2023-04-25T05:39:27.375Z,51792.94
2023-04-25T05:42:12.377Z,51766.84
2023-04-25T05:44:56.273Z,51833.06
2023-04-25T05:47:34.171Z,51764.84
2023-04-25T05:50:17.210Z,51782.91
2023-04-25T05:52:57.516Z,51756.81
2023-04-25T05:55:30.291Z,51756.81
2023-04-25T05:58:02.267Z,51752.81
2023-04-25T06:00:30.912Z,51734.75
2023-04-25T06:02:59.473Z,51724.72
2023-04-25T06:05:28.282Z,51736.75
2023-04-25T06:07:56.794Z,51720.72
2023-04-25T06:10:25.281Z,51764.84
2023-04-25T06:12:53.611Z,51754.81
2023-04-25T06:15:28.481Z,51724.72
2023-04-25T06:17:58.158Z,51726.72
2023-04-25T06:20:26.842Z,51750.81
2023-04-25T06:22:58.259Z,51728.72
2023-04-25T06:25:35.437Z,51714.69
2023-04-25T06:28:04.568Z,51760.84
2023-04-25T06:30:35.135Z,51736.75
2023-04-25T06:33:10.480Z,51758.81
2023-04-25T06:35:40.375Z,51684.59
2023-04-25T06:38:11.848Z,51730.75
2023-04-25T06:40:42.102Z,51734.75
2023-04-25T06:43:11.683Z,51676.56
2023-04-25T06:45:50.709Z,51726.72
2023-04-25T06:48:19.743Z,51714.69
2023-04-25T06:50:48.348Z,51718.69
2023-04-25T06:53:16.739Z,51758.81
2023-04-25T06:55:48.293Z,51776.88
2023-04-25T06:58:21.169Z,51768.84
2023-04-25T07:01:15.370Z,51738.75
2023-04-25T07:03:44.079Z,51780.91
2023-04-25T07:06:17.749Z,51738.75
2023-04-25T07:08:47.152Z,51772.88
2023-04-25T07:11:15.590Z,51732.75
2023-04-25T07:13:44.077Z,51708.66
2023-04-25T07:16:12.776Z,51714.69
2023-04-25T07:18:42.607Z,51704.66
2023-04-25T07:21:12.444Z,51688.63
2023-04-25T07:23:42.662Z,51708.66
2023-04-25T07:26:16.132Z,51726.72
2023-04-25T07:29:04.522Z,51684.59
2023-04-25T07:31:33.067Z,51724.72
2023-04-25T07:34:02.872Z,51728.72
2023-04-25T07:36:31.903Z,51692.63
2023-04-25T07:39:00.337Z,51708.66
2023-04-25T07:41:28.836Z,51726.72
2023-04-25T07:43:57.323Z,51716.69
2023-04-25T07:46:27.428Z,51712.69
2023-04-25T07:48:55.962Z,51700.66
2023-04-25T07:51:26.860Z,51704.66
2023-04-25T07:53:57.043Z,51698.66
2023-04-25T07:56:28.517Z,51736.75
2023-04-25T07:58:59.438Z,51718.69
2023-04-25T08:01:27.943Z,51700.66
2023-04-25T08:04:00.410Z,51700.66
2023-04-25T08:06:39.414Z,51730.75
2023-04-25T08:09:12.147Z,51728.72
2023-04-25T08:11:44.162Z,51732.75
2023-04-25T08:14:15.065Z,51730.75
2023-04-25T08:16:45.344Z,51720.72
2023-04-25T08:19:14.491Z,51696.63
2023-04-25T08:21:44.279Z,51694.63
2023-04-25T08:24:17.628Z,51676.56
2023-04-25T08:26:46.915Z,51668.56
2023-04-25T08:29:18.433Z,51700.66
2023-04-25T08:31:47.083Z,51658.53
2023-04-25T08:34:16.219Z,51612.38
2023-04-25T08:36:51.872Z,51658.53
2023-04-25T08:39:25.363Z,51628.44
2023-04-25T08:42:14.405Z,51642.47
2023-04-25T08:44:43.249Z,51602.34
2023-04-25T08:47:11.799Z,51596.34
2023-04-25T08:49:48.142Z,51618.41
2023-04-25T08:52:29.576Z,51622.41
2023-04-25T08:54:59.326Z,51586.31
2023-04-25T08:57:31.594Z,51560.22
2023-04-25T09:00:03.912Z,51552.19
2023-04-25T09:02:38.082Z,51490.00
2023-04-25T09:05:10.494Z,51465.94
2023-04-25T09:07:40.658Z,51486.00
2023-04-25T09:10:10.815Z,51451.91
2023-04-25T09:12:41.672Z,51514.09
2023-04-25T09:15:12.897Z,51522.13
2023-04-25T09:18:01.333Z,51578.28
2023-04-25T09:20:59.495Z,51606.38
2023-04-25T09:23:31.320Z,51618.41
2023-04-25T09:26:00.238Z,51596.34
2023-04-25T09:28:30.866Z,51636.44
2023-04-25T09:31:01.299Z,51626.44
2023-04-25T09:33:38.152Z,51588.31
2023-04-25T09:36:12.827Z,51604.34
2023-04-25T09:39:04.443Z,51624.41
2023-04-25T09:41:42.922Z,51626.44
2023-04-25T09:44:15.283Z,51652.50
2023-04-25T09:46:45.662Z,51640.47
2023-04-25T09:49:22.016Z,51616.41
2023-04-25T09:52:07.796Z,51616.41
2023-04-25T09:54:52.046Z,51664.53
2023-04-25T10:00:30.202Z,51694.63
2023-04-25T10:02:59.524Z,51670.56
2023-04-25T10:05:50.878Z,51706.66
2023-04-25T10:08:21.467Z,51658.53
2023-04-25T10:10:52.067Z,51644.47
2023-04-25T10:13:26.173Z,51624.41
2023-04-25T10:15:56.173Z,51686.59
2023-04-25T10:18:25.054Z,51656.50
2023-04-25T10:20:56.583Z,51652.50
2023-04-25T10:23:25.565Z,51606.38
2023-04-25T10:25:56.148Z,51614.38
2023-04-25T10:28:24.640Z,51554.22
2023-04-25T10:31:03.756Z,51554.22
2023-04-25T10:33:46.568Z,51465.94
2023-04-25T10:36:17.003Z,51229.25
2023-04-25T10:38:46.656Z,51335.56
2023-04-25T10:41:39.420Z,51293.44
2023-04-25T10:44:07.875Z,51106.88
2023-04-25T10:46:36.965Z,51126.94
2023-04-25T10:49:05.591Z,51219.22
2023-04-25T10:54:20.911Z,51367.66
2023-04-25T10:56:51.219Z,51447.88
2023-04-25T10:59:30.356Z,51471.97
2023-04-25T11:01:59.066Z,51492.03
2023-04-25T11:04:31.628Z,51514.09
2023-04-25T11:07:11.263Z,51293.44
2023-04-25T11:09:50.397Z,51383.69
2023-04-25T11:12:20.152Z,51445.88
2023-04-25T11:14:48.498Z,51514.09
2023-04-25T11:17:22.605Z,51496.03
2023-04-25T11:19:58.053Z,51572.25
2023-04-25T11:22:28.139Z,51576.28
2023-04-25T11:24:56.548Z,51608.38
2023-04-25T11:27:37.137Z,51606.38
2023-04-25T11:30:13.119Z,51608.38
2023-04-25T11:32:42.730Z,51654.50
2023-04-25T11:35:16.242Z,51632.44
2023-04-25T11:37:47.600Z,51606.38
2023-04-25T11:40:17.405Z,51700.66
2023-04-25T11:42:48.926Z,51656.50
2023-04-25T11:45:18.646Z,51656.50
2023-04-25T11:47:48.720Z,51660.53
2023-04-25T11:50:23.877Z,51668.56
2023-04-25T11:52:52.917Z,51646.47
2023-04-25T11:55:22.978Z,51676.56
2023-04-25T11:57:54.669Z,51692.63
2023-04-25T12:00:25.219Z,51636.44
2023-04-25T12:02:57.025Z,51608.38
2023-04-25T12:05:32.667Z,51620.41
2023-04-25T12:08:14.613Z,51642.47
2023-04-25T12:10:45.848Z,51598.34
2023-04-25T12:13:23.193Z,51556.22
2023-04-25T12:16:06.441Z,51554.22
2023-04-25T12:18:38.029Z,51475.97
2023-04-25T12:21:06.586Z,51441.88
2023-04-25T12:23:35.024Z,51421.81
2023-04-25T12:26:07.149Z,51488.00
2023-04-25T12:28:41.273Z,51441.88
2023-04-25T12:31:10.139Z,51437.84
2023-04-25T12:33:40.395Z,51443.88
2023-04-25T12:36:12.125Z,51419.81
2023-04-25T12:38:42.970Z,51375.69
2023-04-25T12:41:12.051Z,51397.75
2023-04-25T12:43:41.902Z,51389.72
2023-04-25T12:46:13.426Z,51397.75
2023-04-25T12:48:44.192Z,51387.72
2023-04-25T12:51:12.675Z,51337.56
2023-04-25T12:53:41.668Z,51341.56
2023-04-25T12:56:11.753Z,51359.63
2023-04-25T12:59:05.059Z,51367.66
2023-04-25T13:01:35.625Z,51365.66
2023-04-25T13:04:05.549Z,51233.25
2023-04-25T13:06:44.585Z,51126.94
2023-04-25T13:09:16.554Z,51122.94
2023-04-25T13:11:45.043Z,51235.25
2023-04-25T13:14:16.710Z,51351.59
2023-04-25T13:16:53.594Z,51357.63
2023-04-25T13:19:22.188Z,51387.72
2023-04-25T13:21:50.972Z,51377.69
2023-04-25T13:24:20.040Z,51207.19
2023-04-25T13:26:52.616Z,51203.16
2023-04-25T13:29:47.572Z,51128.94
2023-04-25T13:32:16.091Z,51141.00
2023-04-25T13:35:10.602Z,51116.91
2023-04-25T13:37:39.936Z,51321.50
2023-04-25T13:40:11.218Z,51367.66
2023-04-25T13:43:02.285Z,51419.81
2023-04-25T13:45:33.541Z,51492.03
2023-04-25T13:48:02.676Z,51496.03
2023-04-25T13:50:40.226Z,51516.09
2023-04-25T13:53:12.942Z,51592.31
2023-04-25T13:55:41.475Z,51588.31
2023-04-25T13:58:10.793Z,51642.47
2023-04-25T14:00:50.407Z,51632.44
2023-04-25T14:03:18.897Z,51630.44
2023-04-25T14:05:49.540Z,51704.66
2023-04-25T14:08:18.215Z,51648.50
2023-04-25T14:11:11.542Z,51676.56
2023-04-25T14:13:39.861Z,51698.66
2023-04-25T14:16:09.676Z,51712.69
2023-04-25T14:18:44.815Z,51694.63
2023-04-25T14:21:21.272Z,51666.53
2023-04-25T14:23:49.965Z,51646.47
2023-04-25T14:26:18.522Z,51708.66
2023-04-25T14:28:46.989Z,51688.63
2023-04-25T14:31:30.594Z,51636.44
2023-04-25T14:33:59.851Z,51638.47
2023-04-25T14:36:30.335Z,51646.47
2023-04-25T14:39:07.553Z,51676.56
2023-04-25T14:41:36.169Z,51666.53
2023-04-25T14:44:04.649Z,51604.34
2023-04-25T14:46:34.813Z,51630.44
2023-04-25T14:49:06.550Z,51526.13
2023-04-25T14:51:44.254Z,51532.13
2023-04-25T14:54:13.009Z,51586.31
2023-04-25T14:56:44.016Z,51602.34
2023-04-25T14:59:14.500Z,51584.28
2023-04-25T15:01:51.381Z,51576.28
2023-04-25T15:04:19.901Z,51598.34
2023-04-25T15:06:48.517Z,51636.44
2023-04-25T15:09:17.479Z,51670.56
2023-04-25T15:14:32.207Z,51678.59
2023-04-25T15:17:02.337Z,51648.50
2023-04-25T15:19:41.906Z,51658.53
2023-04-25T15:22:13.401Z,51660.53
2023-04-25T15:24:42.021Z,51654.50
2023-04-25T15:27:10.415Z,51686.59
2023-04-25T15:29:38.948Z,51686.59
2023-04-25T15:32:17.940Z,51688.63
2023-04-25T15:34:46.809Z,51660.53
2023-04-25T15:37:15.160Z,51644.47
2023-04-25T15:39:44.074Z,51660.53
2023-04-25T15:42:12.515Z,51628.44
2023-04-25T15:44:41.025Z,51636.44
2023-04-25T15:47:10.841Z,51640.47
2023-04-25T15:49:39.404Z,51626.44
2023-04-25T15:52:08.166Z,51616.41
2023-04-25T15:54:36.532Z,51590.31
2023-04-25T15:57:04.912Z,51582.28
2023-04-25T15:59:33.489Z,51560.22
2023-04-25T16:02:01.966Z,51608.38
2023-04-25T16:04:36.620Z,51568.25
2023-04-25T16:07:14.155Z,51594.31
2023-04-25T16:09:42.497Z,51554.22
2023-04-25T16:12:11.942Z,51612.38
2023-04-25T16:14:40.872Z,51620.41
2023-04-25T16:17:17.240Z,51584.28
2023-04-25T16:19:50.212Z,51602.34
2023-04-25T16:22:19.008Z,51596.34
2023-04-25T16:24:47.551Z,51580.28
2023-04-25T16:27:29.691Z,51592.31
2023-04-25T16:29:58.022Z,51636.44
2023-04-25T16:32:26.835Z,51584.28
2023-04-25T16:34:59.023Z,51602.34
2023-04-25T16:40:23.216Z,51572.25
2023-04-25T16:42:51.957Z,51580.28
2023-04-25T16:45:33.860Z,51610.38
2023-04-25T16:48:02.582Z,51616.41
2023-04-25T16:50:34.166Z,51630.44
2023-04-25T16:53:11.594Z,51608.38
2023-04-25T16:55:40.193Z,51636.44
2023-04-25T16:58:11.218Z,51662.53
2023-04-25T17:00:40.339Z,51672.56
2023-04-25T17:03:19.617Z,51630.44
2023-04-25T17:05:51.350Z,51652.50
2023-04-25T17:08:20.326Z,51692.63
2023-04-25T17:10:48.884Z,51676.56
2023-04-25T17:13:30.828Z,51652.50
2023-04-25T17:16:07.436Z,51682.59
2023-04-25T17:18:36.459Z,51640.47
2023-04-25T17:21:07.195Z,51694.63
2023-04-25T17:23:35.883Z,51640.47
2023-04-25T17:26:04.411Z,51692.63
2023-04-25T17:29:27.541Z,51632.44
2023-04-25T17:31:57.031Z,51684.59
2023-04-25T17:34:25.541Z,51632.44
2023-04-25T17:36:55.647Z,51688.63
2023-04-25T18:12:15.296Z,51704.66
2023-04-25T19:29:47.361Z,51748.78
2023-04-25T20:11:19.196Z,51732.75
2023-04-25T20:14:33.380Z,51764.84
2023-04-25T20:18:01.652Z,51730.75
